Bancroft, NE (68004)

17:11 CDT le 27 août 2016 (GMT -0500)
Prairie Oaks Lane | | Change Station

Alt. 1388 ft 41.91 °N, 96.64 °W | Updated 8 seconds ago

Clear
Ciel dégagé
85.3 ° F
Paraît 94 ° F
N
0.2
Vent Variable Vent de SSE
Gusts 2.5 mph

Aujourd'hui
Haut(e) -- | Bas -- ° F
--% Risque de précip.
Hier
Haut(e) -- | Bas -- ° F
Precip. -- pouce
Pression 29.99 pouce
Visibilité 10.0 Miles terrestres
Nuages Ciel dégagé
indice de chaleur 94 ° F
Point de rosée 75 ° F
Humidité 71%
Précipitations 0.00 pouce
Profondeur de la couche neigeuse Non disponible.
6:47 AM 8:07 PM
Lune descendante, 21% visible
METAR KLCG 272155Z AUTO 17007KT 10SM CLR 26/20 A2999 RMK AO2 T02550196
Pression 29.99 pouce
Visibilité 10.0 Miles terrestres
Nuages Ciel dégagé
indice de chaleur 94 ° F
Point de rosée 75 ° F
Humidité 71%
Précipitations 0.00 pouce
Profondeur de la couche neigeuse Non disponible.
6:47 AM 8:07 PM
Lune descendante, 21% visible
METAR KLCG 272155Z AUTO 17007KT 10SM CLR 26/20 A2999 RMK AO2 T02550196

10-Day Weather Forecast

Almanac

Astronomie

Aug. 27, 2016 Lever Coucher
Temps réel
Crépuscule civil
Crépuscule nautique
Crépuscule astronomique
Lune
Durée de lumière visible
Longueur du jour
Tomorrow will be .
, % of the Moon is Illuminated

Extrêmes aujourd'hui

State Highs State Lows

Community

WunderPhotos

Upload Photos

1,935,455 Photos téléchargées !

WunderBlog® & News

Nearby

Qualité de l'air

  Qualité de l'air Indice de la qualité de l'air Polluant
Not available.

Épaisseur de neige

Station Depth Altitude

Activité sismique

Ville Distance Mag. Time & Date
Minimum magnitude displayed is 2.5.

Températures des eaux côtières

Lieu Température

Stations

Stations météo à proximité

Emplacement de la station Température Refroidissement éolien Point de rosée Humidité Vent Precip. Alt. Mise à jour Type
                   

Watches & Warnings

There are currently no watches in effect.